Time;durP1;ratioP1;P1;durP2;ratioP2;P2;SDS_P1;SDS_P2;PMS_P1;PMS_P2;Temp;Humidity;BMP_temperature;BMP_pressure;BME280_temperature;BME280_humidity;BME280_pressure;Samples;Min_cycle;Max_cycle;Signal;HPM_P1;HPM_P2
2024/04/26 00:01:17;;;;;;;;;;;;;;;6.35;63.11;96991.38;5457632;26;19928;-75
2024/04/26 00:04:11;;;;;;;;;;;;;;;6.26;63.34;96986.69;5482321;26;19935;-75
2024/04/26 00:07:04;;;;;;;;;;;;;;;6.25;63.09;96981.63;5484183;26;20379;-75
2024/04/26 00:09:56;;;;;;;;;;;;;;;6.19;63.09;96986.34;5485741;26;19957;-75
2024/04/26 00:12:49;;;;;;;;;;;;;;;6.29;63.49;96983.41;5462037;26;19934;-76
2024/04/26 00:15:39;;;;;;;;;;;;;;;6.28;63.17;96984.53;5488265;26;19940;-75
2024/04/26 00:18:29;;;;;;;;;;;;;;;6.33;63.38;96985.47;5486487;26;19939;-76
2024/04/26 00:21:19;;;;;;;;;;;;;;;6.33;62.90;96985.47;5483688;26;19940;-75
2024/04/26 00:24:12;;;;;;;;;;;;;;;6.32;63.29;96978.50;5463823;26;19936;-74
2024/04/26 00:27:02;;;;;;;;;;;;;;;6.27;63.19;96982.91;5485207;26;19935;-75
2024/04/26 00:29:54;;;;;;;;;;;;;;;6.24;63.14;96978.13;5454609;26;19935;-74
2024/04/26 00:32:46;;;;;;;;;;;;;;;6.21;63.75;96984.13;5472438;26;19996;-75
2024/04/26 00:35:36;;;;;;;;;;;;;;;6.17;63.49;96977.75;5466198;26;19996;-75
2024/04/26 00:38:30;;;;;;;;;;;;;;;6.16;63.46;96978.06;5455408;26;20060;-75
2024/04/26 00:41:20;;;;;;;;;;;;;;;6.04;63.79;96979.38;5472200;26;19928;-75
2024/04/26 00:44:12;;;;;;;;;;;;;;;6.00;64.03;96977.59;5481046;26;19996;-75
2024/04/26 00:47:07;;;;;;;;;;;;;;;5.99;63.94;96974.13;5481716;26;19928;-75
2024/04/26 00:49:57;;;;;;;;;;;;;;;5.94;64.05;96981.53;5479225;26;20337;-75
2024/04/26 00:52:47;;;;;;;;;;;;;;;5.86;63.92;96974.09;5471751;26;19997;-77
2024/04/26 00:55:37;;;;;;;;;;;;;;;5.83;64.50;96978.22;5483116;26;19928;-75
2024/04/26 00:58:27;;;;;;;;;;;;;;;5.72;64.72;96977.66;5455967;26;19928;-75
2024/04/26 01:01:18;;;;;;;;;;;;;;;5.65;65.05;96977.25;5482699;26;19939;-75
2024/04/26 01:04:11;;;;;;;;;;;;;;;5.69;64.54;96983.63;5458837;26;19928;-68
2024/04/26 01:07:03;;;;;;;;;;;;;;;5.72;64.47;96987.63;5436788;26;19928;-68
2024/04/26 01:09:53;;;;;;;;;;;;;;;5.69;64.66;96978.22;5482753;26;19928;-68
2024/04/26 01:12:43;;;;;;;;;;;;;;;5.67;64.56;96982.34;5446550;26;19929;-68
2024/04/26 01:15:37;;;;;;;;;;;;;;;5.52;65.13;96984.25;5462796;26;19928;-68
2024/04/26 01:18:26;;;;;;;;;;;;;;;5.59;64.84;96988.44;5456036;26;20367;-68
2024/04/26 01:21:20;;;;;;;;;;;;;;;5.56;65.17;96994.44;5458112;26;20330;-68
2024/04/26 01:24:13;;;;;;;;;;;;;;;5.55;64.88;96984.75;5443206;26;19993;-68
2024/04/26 01:27:03;;;;;;;;;;;;;;;5.55;64.94;96988.25;5483748;26;19935;-68
2024/04/26 01:29:53;;;;;;;;;;;;;;;5.52;64.65;96988.84;5477137;26;19938;-68
2024/04/26 01:32:43;;;;;;;;;;;;;;;5.49;64.90;96989.47;5488227;26;19928;-68
2024/04/26 01:35:33;;;;;;;;;;;;;;;5.39;64.68;96995.84;5486851;26;20359;-68
2024/04/26 01:38:23;;;;;;;;;;;;;;;5.44;64.65;96982.28;5449255;26;19928;-68
2024/04/26 01:41:16;;;;;;;;;;;;;;;5.47;64.79;96988.94;5485589;26;19928;-68
2024/04/26 01:44:06;;;;;;;;;;;;;;;5.40;64.33;96991.25;5460332;26;20440;-68
2024/04/26 01:46:57;;;;;;;;;;;;;;;5.38;64.86;96993.44;5475427;26;19936;-68
2024/04/26 01:49:47;;;;;;;;;;;;;;;5.33;64.88;96990.88;5467635;26;20267;-68
2024/04/26 01:52:37;;;;;;;;;;;;;;;5.36;64.87;96996.44;5458641;26;19943;-68
2024/04/26 01:55:27;;;;;;;;;;;;;;;5.24;65.12;96998.84;5482941;26;19928;-68
2024/04/26 01:58:17;;;;;;;;;;;;;;;5.23;65.10;96992.66;5469334;26;19931;-67
2024/04/26 02:01:07;;;;;;;;;;;;;;;5.27;64.95;96992.84;5454687;26;20000;-68
2024/04/26 02:04:19;;;;;;;;;;;;;;;5.19;65.09;96994.34;5457073;26;19936;-67
2024/04/26 02:07:39;;;;;;;;;;;;;;;5.20;65.05;96997.81;5478511;26;19931;-67
2024/04/26 02:10:27;;;;;;;;;;;;;;;5.20;65.24;96998.63;5485781;26;19936;-68
2024/04/26 02:13:20;;;;;;;;;;;;;;;5.18;64.89;96995.44;5480828;26;19934;-75
2024/04/26 02:16:07;;;;;;;;;;;;;;;5.12;65.48;97002.03;5480918;26;19928;-75
2024/04/26 02:18:59;;;;;;;;;;;;;;;5.11;65.28;96997.72;5471843;26;19934;-75
2024/04/26 02:21:49;;;;;;;;;;;;;;;5.04;65.92;96997.31;5465348;26;19969;-75
2024/04/26 02:24:39;;;;;;;;;;;;;;;5.00;65.99;96999.00;5482765;26;19936;-75
2024/04/26 02:27:31;;;;;;;;;;;;;;;4.93;65.51;96998.59;5484837;26;19956;-74
2024/04/26 02:30:26;;;;;;;;;;;;;;;4.90;66.01;97001.88;5474426;26;19927;-74
2024/04/26 02:33:18;;;;;;;;;;;;;;;4.86;65.99;97003.59;5486252;26;19928;-75
2024/04/26 02:36:10;;;;;;;;;;;;;;;4.78;66.36;96999.66;5463472;26;19928;-74
2024/04/26 02:39:00;;;;;;;;;;;;;;;4.78;66.02;96998.88;5483870;26;19934;-75
2024/04/26 02:41:50;;;;;;;;;;;;;;;4.81;66.25;96999.09;5469222;26;19936;-75
2024/04/26 02:44:40;;;;;;;;;;;;;;;4.79;66.07;97003.16;5483816;26;19944;-75
2024/04/26 02:47:34;;;;;;;;;;;;;;;4.73;66.30;97000.53;5473679;26;19960;-75
2024/04/26 02:50:24;;;;;;;;;;;;;;;4.66;65.86;97000.13;5481407;26;19927;-75
2024/04/26 02:53:14;;;;;;;;;;;;;;;4.63;66.15;97008.78;5484907;26;20286;-75
2024/04/26 02:56:05;;;;;;;;;;;;;;;4.53;65.95;97000.91;5459183;26;20377;-75
2024/04/26 02:58:55;;;;;;;;;;;;;;;4.57;66.38;96996.50;5452230;26;19974;-74
2024/04/26 03:01:46;;;;;;;;;;;;;;;4.59;66.20;97012.38;5475829;26;19935;-74
2024/04/26 03:04:39;;;;;;;;;;;;;;;4.60;66.46;97001.31;5477264;26;20004;-75
2024/04/26 03:07:29;;;;;;;;;;;;;;;4.44;66.92;97003.47;5483268;26;19935;-75
2024/04/26 03:10:20;;;;;;;;;;;;;;;4.43;67.10;97001.06;5484418;26;19939;-74
2024/04/26 03:13:10;;;;;;;;;;;;;;;4.39;66.54;96992.78;5443185;26;19928;-75
2024/04/26 03:16:00;;;;;;;;;;;;;;;4.32;66.74;96999.63;5474646;26;19928;-78
2024/04/26 03:18:50;;;;;;;;;;;;;;;4.30;67.23;96996.44;5485011;26;19935;-75
2024/04/26 03:21:47;;;;;;;;;;;;;;;4.33;67.11;96996.66;5484877;26;19928;-75
2024/04/26 03:24:39;;;;;;;;;;;;;;;4.31;66.88;96995.34;5457200;26;19928;-71
2024/04/26 03:27:29;;;;;;;;;;;;;;;4.26;66.98;96993.53;5484217;26;20374;-70
2024/04/26 03:30:19;;;;;;;;;;;;;;;4.23;66.97;96996.00;5470050;26;19969;-71
2024/04/26 03:33:13;;;;;;;;;;;;;;;4.11;67.28;96996.47;5479925;26;19931;-70
2024/04/26 03:36:03;;;;;;;;;;;;;;;4.09;67.18;96996.72;5483824;26;19934;-70
2024/04/26 03:38:59;;;;;;;;;;;;;;;4.16;67.41;96989.13;5485672;26;20380;-70
2024/04/26 03:41:49;;;;;;;;;;;;;;;4.15;67.09;96990.19;5482414;26;19927;-71
2024/04/26 03:44:40;;;;;;;;;;;;;;;4.10;67.09;96994.84;5448171;26;20900;-71
2024/04/26 03:47:30;;;;;;;;;;;;;;;4.13;67.27;96992.38;5468167;26;19927;-70
2024/04/26 03:50:20;;;;;;;;;;;;;;;4.13;67.50;96989.69;5482097;26;19956;-70
2024/04/26 03:53:13;;;;;;;;;;;;;;;4.12;67.14;96984.63;5482777;26;19928;-71
2024/04/26 03:56:06;;;;;;;;;;;;;;;4.04;67.10;96986.06;5482125;26;19935;-69
2024/04/26 03:58:59;;;;;;;;;;;;;;;3.94;67.30;96988.88;5457974;26;19935;-71
2024/04/26 04:01:49;;;;;;;;;;;;;;;4.00;66.91;96982.38;5480759;26;19994;-71
2024/04/26 04:04:39;;;;;;;;;;;;;;;4.02;67.20;96980.19;5448340;26;19928;-70
2024/04/26 04:07:29;;;;;;;;;;;;;;;3.96;67.22;96986.72;5466871;26;19927;-70
2024/04/26 04:10:23;;;;;;;;;;;;;;;3.86;67.21;96982.28;5472472;26;19932;-71
2024/04/26 04:13:16;;;;;;;;;;;;;;;3.82;67.59;96975.09;5474765;26;20788;-71
2024/04/26 04:16:06;;;;;;;;;;;;;;;3.73;67.96;96971.47;5458279;26;19964;-70
2024/04/26 04:18:56;;;;;;;;;;;;;;;3.79;67.85;96971.13;5473816;26;20428;-71
2024/04/26 04:21:46;;;;;;;;;;;;;;;3.95;67.65;96971.69;5418893;26;19928;-71
2024/04/26 04:24:40;;;;;;;;;;;;;;;4.03;67.46;96970.22;5449199;26;19956;-71
2024/04/26 04:27:30;;;;;;;;;;;;;;;3.99;67.11;96970.00;5466892;26;19932;-71
2024/04/26 04:30:23;;;;;;;;;;;;;;;3.98;67.23;96979.16;5447106;26;19939;-70
2024/04/26 04:33:15;;;;;;;;;;;;;;;4.07;66.91;96966.66;5473443;26;19936;-71
2024/04/26 04:36:08;;;;;;;;;;;;;;;4.04;67.37;96978.00;5479565;26;20330;-74
2024/04/26 04:39:00;;;;;;;;;;;;;;;4.02;66.87;96974.81;5444147;26;19941;-73
2024/04/26 04:41:50;;;;;;;;;;;;;;;4.00;67.40;96982.38;5458350;26;19928;-71
2024/04/26 04:44:44;;;;;;;;;;;;;;;4.06;67.23;96978.53;5447753;26;20051;-73
2024/04/26 04:47:37;;;;;;;;;;;;;;;4.06;67.09;96983.09;5449771;26;19931;-75
2024/04/26 04:50:27;;;;;;;;;;;;;;;4.06;66.87;96973.13;5463119;26;19940;-73
2024/04/26 04:53:20;;;;;;;;;;;;;;;4.02;66.97;96979.38;5479960;26;19938;-74
2024/04/26 04:56:10;;;;;;;;;;;;;;;4.05;67.07;96976.09;5488851;26;20210;-73
2024/04/26 04:59:02;;;;;;;;;;;;;;;4.16;66.95;96981.06;5485890;26;19934;-75
2024/04/26 05:01:58;;;;;;;;;;;;;;;4.20;66.85;96975.88;5476286;26;19928;-73
2024/04/26 05:04:51;;;;;;;;;;;;;;;4.14;66.75;96980.53;5440758;26;19928;-73
2024/04/26 05:07:44;;;;;;;;;;;;;;;4.19;67.01;96980.44;5467357;26;19943;-73
2024/04/26 05:10:37;;;;;;;;;;;;;;;4.28;66.90;96982.50;5457359;26;20383;-72
2024/04/26 05:13:28;;;;;;;;;;;;;;;4.26;66.96;96976.59;5462411;26;19983;-70
2024/04/26 05:16:22;;;;;;;;;;;;;;;4.26;67.53;96965.84;5481102;26;19939;-75
2024/04/26 05:19:12;;;;;;;;;;;;;;;4.27;67.18;96954.81;5477385;26;19935;-72
2024/04/26 05:22:05;;;;;;;;;;;;;;;4.44;66.89;96955.06;5456198;26;19928;-72
2024/04/26 05:24:55;;;;;;;;;;;;;;;4.54;66.81;96962.16;5457717;26;19936;-75
2024/04/26 05:27:48;;;;;;;;;;;;;;;4.65;66.73;96950.13;5442783;26;19960;-71
2024/04/26 05:30:38;;;;;;;;;;;;;;;4.71;66.82;96964.28;5444812;26;19927;-71
2024/04/26 05:33:28;;;;;;;;;;;;;;;4.72;66.39;96972.06;5454111;26;19956;-71
2024/04/26 05:36:19;;;;;;;;;;;;;;;4.89;66.15;96970.69;5476942;26;19977;-71
2024/04/26 05:39:14;;;;;;;;;;;;;;;4.90;65.74;96965.03;5480191;26;19928;-72
2024/04/26 05:42:04;;;;;;;;;;;;;;;5.04;65.75;96967.69;5434303;26;19936;-71
2024/04/26 05:44:55;;;;;;;;;;;;;;;5.13;65.26;96973.19;5485862;26;19928;-76
2024/04/26 05:47:47;;;;;;;;;;;;;;;5.25;65.10;96963.53;5485031;26;19928;-75
2024/04/26 05:50:38;;;;;;;;;;;;;;;5.41;64.91;96965.91;5480767;26;20297;-75
2024/04/26 05:53:28;;;;;;;;;;;;;;;5.59;64.23;96970.38;5490476;26;19928;-75
2024/04/26 05:56:21;;;;;;;;;;;;;;;5.70;63.66;96968.25;5481297;26;20305;-75
2024/04/26 05:59:11;;;;;;;;;;;;;;;5.70;63.17;96969.06;5459940;26;20644;-75
2024/04/26 06:02:02;;;;;;;;;;;;;;;5.85;62.69;96973.31;5449955;26;19952;-75
2024/04/26 06:05:00;;;;;;;;;;;;;;;5.96;62.64;96961.22;5476830;26;20310;-75
2024/04/26 06:07:51;;;;;;;;;;;;;;;6.05;61.85;96964.00;5454235;26;20052;-75
2024/04/26 06:10:43;;;;;;;;;;;;;;;6.20;62.18;96958.25;5475373;26;19946;-75
2024/04/26 06:13:36;;;;;;;;;;;;;;;6.26;61.95;96962.44;5480685;26;19928;-75
2024/04/26 06:16:26;;;;;;;;;;;;;;;6.48;61.62;96968.94;5481421;26;19939;-75
2024/04/26 06:19:16;;;;;;;;;;;;;;;6.55;59.78;96977.38;5459915;26;19932;-75
2024/04/26 06:22:09;;;;;;;;;;;;;;;6.64;60.09;96972.84;5477106;26;19931;-75
2024/04/26 06:25:02;;;;;;;;;;;;;;;6.77;60.00;96974.69;5458687;26;19928;-75
2024/04/26 06:27:52;;;;;;;;;;;;;;;6.87;59.68;96976.31;5487115;26;19927;-75
2024/04/26 06:30:44;;;;;;;;;;;;;;;6.93;59.84;96971.59;5455747;26;20344;-75
2024/04/26 06:33:34;;;;;;;;;;;;;;;7.13;59.40;96975.63;5434494;26;19928;-74
2024/04/26 06:36:24;;;;;;;;;;;;;;;7.23;56.30;96980.75;5485020;26;19927;-75
2024/04/26 06:39:14;;;;;;;;;;;;;;;7.33;56.88;96973.16;5484352;26;19939;-76
2024/04/26 06:42:07;;;;;;;;;;;;;;;7.47;57.35;96983.88;5453918;26;19935;-76
2024/04/26 06:44:59;;;;;;;;;;;;;;;7.54;55.95;96978.78;5474352;26;19928;-75
2024/04/26 06:47:52;;;;;;;;;;;;;;;7.69;55.11;96985.66;5475986;26;19927;-76
2024/04/26 06:50:44;;;;;;;;;;;;;;;7.86;55.53;96983.00;5473176;26;19936;-75
2024/04/26 06:53:34;;;;;;;;;;;;;;;7.97;53.68;96982.69;5457695;26;19928;-71
2024/04/26 06:56:26;;;;;;;;;;;;;;;8.15;53.20;96976.19;5476064;26;19935;-71
2024/04/26 06:59:16;;;;;;;;;;;;;;;8.39;51.68;96979.22;5458336;26;19947;-71
2024/04/26 07:02:08;;;;;;;;;;;;;;;8.44;51.99;96988.31;5477974;26;19935;-71
2024/04/26 07:05:01;;;;;;;;;;;;;;;8.55;52.66;96984.16;5437100;26;19928;-71
2024/04/26 07:07:51;;;;;;;;;;;;;;;8.69;51.86;96976.66;5456712;26;19940;-72
2024/04/26 07:10:44;;;;;;;;;;;;;;;8.80;51.62;96977.91;5483900;26;19928;-72
2024/04/26 07:13:34;;;;;;;;;;;;;;;8.91;50.63;96973.72;5471905;26;20001;-72
2024/04/26 07:16:23;;;;;;;;;;;;;;;9.05;50.35;96978.13;5487518;26;19927;-72
2024/04/26 07:19:13;;;;;;;;;;;;;;;9.13;49.86;96975.41;5452491;26;19997;-73
2024/04/26 07:22:07;;;;;;;;;;;;;;;9.34;49.53;96971.97;5479119;26;20690;-71
2024/04/26 07:24:57;;;;;;;;;;;;;;;9.44;48.45;96972.41;5457651;26;20021;-71
2024/04/26 07:27:48;;;;;;;;;;;;;;;9.58;47.73;96974.09;5459022;26;19955;-71
2024/04/26 07:30:38;;;;;;;;;;;;;;;9.75;47.82;96967.75;5484651;26;19928;-72
2024/04/26 07:33:29;;;;;;;;;;;;;;;9.86;46.88;96975.22;5458386;26;20315;-72
2024/04/26 07:36:20;;;;;;;;;;;;;;;9.94;47.58;96970.84;5484325;26;19960;-72
2024/04/26 07:39:13;;;;;;;;;;;;;;;10.10;47.03;96968.34;5472026;26;19928;-72
2024/04/26 07:42:04;;;;;;;;;;;;;;;10.26;46.16;96965.84;5455021;26;19956;-72
2024/04/26 07:44:55;;;;;;;;;;;;;;;10.32;46.32;96970.72;5448830;26;19955;-72
2024/04/26 07:47:45;;;;;;;;;;;;;;;10.39;46.33;96978.38;5477896;26;19928;-72
2024/04/26 07:50:35;;;;;;;;;;;;;;;10.57;46.29;96970.84;5484613;26;20306;-72
2024/04/26 07:53:25;;;;;;;;;;;;;;;10.63;45.32;96964.06;5483111;26;19940;-72
2024/04/26 07:56:18;;;;;;;;;;;;;;;10.65;45.22;96968.06;5462796;26;19996;-72
2024/04/26 07:59:08;;;;;;;;;;;;;;;10.78;44.60;96976.25;5479693;26;19928;-73
2024/04/26 08:01:57;;;;;;;;;;;;;;;10.98;44.86;96967.25;5482040;26;19996;-72
2024/04/26 08:04:47;;;;;;;;;;;;;;;11.27;43.01;96975.19;5435212;26;19950;-69
2024/04/26 08:07:37;;;;;;;;;;;;;;;11.38;43.17;96978.28;5482029;26;19935;-69
2024/04/26 08:10:27;;;;;;;;;;;;;;;11.48;41.96;96972.38;5483509;26;19943;-69
2024/04/26 08:13:23;;;;;;;;;;;;;;;11.62;42.91;96976.72;5455360;26;19932;-69
2024/04/26 08:16:13;;;;;;;;;;;;;;;11.63;41.82;96973.63;5465035;26;19927;-68
2024/04/26 08:19:03;;;;;;;;;;;;;;;11.70;42.85;96973.06;5452844;26;19928;-70
2024/04/26 08:21:55;;;;;;;;;;;;;;;11.84;41.44;96972.75;5450061;26;20087;-70
2024/04/26 08:24:45;;;;;;;;;;;;;;;11.87;42.10;96975.56;5470647;26;19929;-70
2024/04/26 08:27:44;;;;;;;;;;;;;;;11.95;42.28;96980.09;5451106;26;19928;-70
2024/04/26 08:30:40;;;;;;;;;;;;;;;12.03;41.09;96968.28;5482319;26;20360;-69
2024/04/26 08:33:30;;;;;;;;;;;;;;;12.27;40.46;96975.59;5460447;26;19940;-69
2024/04/26 08:36:21;;;;;;;;;;;;;;;12.27;40.36;96972.09;5434148;26;19964;-69
2024/04/26 08:39:12;;;;;;;;;;;;;;;12.35;39.78;96970.34;5465904;26;19960;-69
2024/04/26 08:42:02;;;;;;;;;;;;;;;12.30;40.36;96974.09;5482459;26;19936;-68
2024/04/26 08:44:52;;;;;;;;;;;;;;;12.45;40.11;96976.09;5453556;26;19955;-68
2024/04/26 08:47:44;;;;;;;;;;;;;;;12.64;40.12;96980.13;5478423;26;19932;-68
2024/04/26 08:50:34;;;;;;;;;;;;;;;12.62;39.09;96969.56;5476267;26;19928;-69
2024/04/26 08:53:25;;;;;;;;;;;;;;;12.71;39.02;96977.59;5446040;26;19955;-69
2024/04/26 08:56:15;;;;;;;;;;;;;;;12.96;38.70;96973.63;5432960;26;19939;-69
2024/04/26 08:59:05;;;;;;;;;;;;;;;13.04;37.67;96982.75;5460749;26;19928;-69
2024/04/26 09:01:55;;;;;;;;;;;;;;;13.08;37.18;96980.94;5479485;26;19943;-69
2024/04/26 09:04:49;;;;;;;;;;;;;;;13.26;37.46;96986.88;5434341;26;20774;-69
2024/04/26 09:07:39;;;;;;;;;;;;;;;13.14;36.65;96993.16;5480311;26;19973;-69
2024/04/26 09:10:29;;;;;;;;;;;;;;;13.13;36.79;96983.41;5451495;26;19927;-69
2024/04/26 09:13:20;;;;;;;;;;;;;;;13.08;37.47;96981.72;5460016;26;20371;-69
2024/04/26 09:16:10;;;;;;;;;;;;;;;13.14;36.12;96982.25;5480508;26;19963;-69
2024/04/26 09:19:00;;;;;;;;;;;;;;;13.21;37.13;96978.91;5482342;26;19934;-69
2024/04/26 09:21:59;;;;;;;;;;;;;;;13.21;37.31;96978.91;5463465;26;20470;-69
2024/04/26 09:24:49;;;;;;;;;;;;;;;13.14;36.88;96979.53;5437268;26;19932;-69
2024/04/26 09:27:39;;;;;;;;;;;;;;;13.16;36.70;96987.38;5479649;26;19928;-69
2024/04/26 09:30:34;;;;;;;;;;;;;;;13.18;35.73;96987.81;5437069;26;19928;-69
2024/04/26 09:33:24;;;;;;;;;;;;;;;13.17;35.78;96988.97;5479817;26;19939;-69
2024/04/26 09:36:14;;;;;;;;;;;;;;;13.28;37.07;96985.38;5428864;26;19934;-69
2024/04/26 09:39:06;;;;;;;;;;;;;;;13.23;35.81;96993.81;5464922;26;20001;-69
2024/04/26 09:41:57;;;;;;;;;;;;;;;13.29;36.54;96991.63;5447833;26;19943;-69
2024/04/26 09:44:47;;;;;;;;;;;;;;;13.31;36.29;96981.94;5473324;26;19940;-69
2024/04/26 09:47:38;;;;;;;;;;;;;;;13.37;36.68;96993.41;5449118;26;19934;-68
2024/04/26 09:50:30;;;;;;;;;;;;;;;13.36;36.60;96987.13;5482880;26;19936;-69
2024/04/26 09:53:20;;;;;;;;;;;;;;;13.29;35.38;96978.78;5472382;26;19939;-69
2024/04/26 09:56:13;;;;;;;;;;;;;;;13.45;36.38;96983.44;5484029;26;19927;-69
2024/04/26 09:59:07;;;;;;;;;;;;;;;13.40;34.85;96986.44;5456622;26;19997;-68
2024/04/26 10:01:57;;;;;;;;;;;;;;;13.26;36.37;96989.59;5468864;26;19936;-68
2024/04/26 10:04:49;;;;;;;;;;;;;;;13.27;35.66;96992.00;5427839;26;19935;-67
2024/04/26 10:07:40;;;;;;;;;;;;;;;13.32;37.84;96990.94;5477386;26;19952;-68
2024/04/26 10:10:32;;;;;;;;;;;;;;;13.37;36.12;96982.50;5463635;26;19997;-68
2024/04/26 10:13:25;;;;;;;;;;;;;;;13.69;36.34;96977.00;5453862;26;19934;-68
2024/04/26 10:16:15;;;;;;;;;;;;;;;13.95;36.06;96985.41;5476370;26;19973;-68
2024/04/26 10:19:15;;;;;;;;;;;;;;;14.08;34.39;96975.97;5484382;26;19928;-68
2024/04/26 10:22:06;;;;;;;;;;;;;;;13.97;33.63;96987.81;5439530;26;19943;-68
2024/04/26 10:24:56;;;;;;;;;;;;;;;14.14;34.10;96990.13;5474828;26;19935;-87
2024/04/26 10:27:46;;;;;;;;;;;;;;;14.07;33.47;96988.03;5482882;26;19928;-86
2024/04/26 10:30:44;;;;;;;;;;;;;;;14.08;34.82;96992.34;5467581;26;19936;-86
2024/04/26 10:33:34;;;;;;;;;;;;;;;14.12;34.54;96985.03;5485788;26;19935;-87
2024/04/26 10:36:25;;;;;;;;;;;;;;;14.03;34.41;96989.09;5491931;26;20270;-87
2024/04/26 10:39:24;;;;;;;;;;;;;;;14.13;34.63;96983.09;5461188;26;20006;-85
2024/04/26 10:42:16;;;;;;;;;;;;;;;14.00;35.31;96976.94;5460469;26;20330;-80
2024/04/26 10:45:08;;;;;;;;;;;;;;;13.97;35.31;96980.41;5450876;26;19940;-79
2024/04/26 10:48:00;;;;;;;;;;;;;;;14.10;35.55;96981.06;5467141;26;19928;-79
2024/04/26 10:50:50;;;;;;;;;;;;;;;14.16;35.57;96980.41;5487903;26;19977;-80
2024/04/26 10:53:43;;;;;;;;;;;;;;;14.12;36.69;96985.03;5484885;26;19960;-79
2024/04/26 10:56:40;;;;;;;;;;;;;;;14.14;36.28;96988.19;5457081;26;19956;-80
2024/04/26 10:59:33;;;;;;;;;;;;;;;14.15;36.86;96976.13;5487164;26;19965;-81
2024/04/26 11:02:24;;;;;;;;;;;;;;;14.14;38.09;96979.22;5449964;26;19933;-80
2024/04/26 11:05:16;;;;;;;;;;;;;;;14.22;36.62;96980.13;5490469;26;19928;-80
2024/04/26 11:08:07;;;;;;;;;;;;;;;14.24;36.44;96983.31;5472835;26;19992;-83
2024/04/26 11:10:57;;;;;;;;;;;;;;;14.30;35.50;96977.22;5485244;26;19932;-82
2024/04/26 11:13:50;;;;;;;;;;;;;;;14.21;35.67;96970.38;5483010;26;19932;-82
2024/04/26 11:16:45;;;;;;;;;;;;;;;14.31;35.61;96975.28;5482555;26;19947;-82
2024/04/26 11:19:36;;;;;;;;;;;;;;;14.36;35.99;96980.47;5484833;26;19935;-81
2024/04/26 11:22:29;;;;;;;;;;;;;;;14.29;36.39;96983.03;5481139;26;19930;-81
2024/04/26 11:25:19;;;;;;;;;;;;;;;14.20;37.85;96982.44;5466717;26;19935;-85
2024/04/26 11:28:09;;;;;;;;;;;;;;;14.07;38.02;96993.50;5480676;26;19935;-82
2024/04/26 11:30:59;;;;;;;;;;;;;;;14.24;38.67;96994.25;5459441;26;19932;-84
2024/04/26 11:33:49;;;;;;;;;;;;;;;14.23;39.61;96988.00;5438994;26;20470;-73
2024/04/26 11:36:39;;;;;;;;;;;;;;;14.21;39.65;96986.75;5452465;26;19952;-73
2024/04/26 11:39:33;;;;;;;;;;;;;;;14.35;39.96;96995.28;5467084;26;20379;-74
2024/04/26 11:42:26;;;;;;;;;;;;;;;14.32;40.19;96988.56;5477739;26;20341;-73
2024/04/26 11:45:17;;;;;;;;;;;;;;;14.40;40.56;96989.53;5454975;26;20320;-74
2024/04/26 11:48:07;;;;;;;;;;;;;;;14.53;41.06;96988.25;5450772;26;20260;-73
2024/04/26 11:50:57;;;;;;;;;;;;;;;14.39;41.44;96986.00;5469411;26;19935;-74
2024/04/26 11:53:47;;;;;;;;;;;;;;;14.30;42.16;96982.69;5457692;26;19928;-74
2024/04/26 11:56:40;;;;;;;;;;;;;;;14.29;42.25;96988.50;5456854;26;20342;-74
2024/04/26 11:59:30;;;;;;;;;;;;;;;14.16;41.31;96985.88;5433909;26;19939;-74
2024/04/26 12:02:21;;;;;;;;;;;;;;;14.22;42.23;96983.69;5471186;26;19932;-75
2024/04/26 12:05:11;;;;;;;;;;;;;;;14.04;41.87;96991.47;5466363;26;19972;-72
2024/04/26 12:08:02;;;;;;;;;;;;;;;14.13;41.32;96997.53;5456472;26;19939;-72
2024/04/26 12:10:53;;;;;;;;;;;;;;;14.01;41.05;96992.19;5479018;26;19928;-72
2024/04/26 12:13:52;;;;;;;;;;;;;;;14.03;41.92;96997.31;5484359;26;19934;-72
2024/04/26 12:16:46;;;;;;;;;;;;;;;14.06;41.90;96996.56;5463966;26;20270;-73
2024/04/26 12:19:36;;;;;;;;;;;;;;;14.14;41.38;97001.84;5475458;26;19936;-72
2024/04/26 12:22:26;;;;;;;;;;;;;;;13.98;41.43;97001.09;5470327;26;19951;-72
2024/04/26 12:25:16;;;;;;;;;;;;;;;13.97;41.89;97007.72;5460299;26;19935;-73
2024/04/26 12:28:09;;;;;;;;;;;;;;;13.80;42.50;97016.28;5453989;26;19928;-72
2024/04/26 12:31:02;;;;;;;;;;;;;;;13.65;42.90;97008.91;5460161;26;19928;-72
2024/04/26 12:33:51;;;;;;;;;;;;;;;13.67;42.94;97007.38;5466177;26;19928;-72
2024/04/26 12:36:46;;;;;;;;;;;;;;;13.75;42.44;97000.97;5482209;26;20533;-71
2024/04/26 12:39:38;;;;;;;;;;;;;;;13.65;43.61;97009.69;5482086;26;19936;-73
2024/04/26 12:42:28;;;;;;;;;;;;;;;13.70;43.10;97008.63;5454900;26;19939;-76
2024/04/26 12:45:18;;;;;;;;;;;;;;;13.69;43.99;97005.09;5482024;26;19928;-75
2024/04/26 12:48:11;;;;;;;;;;;;;;;13.55;44.19;97011.00;5440053;26;19939;-74
2024/04/26 12:51:01;;;;;;;;;;;;;;;13.64;43.86;97008.09;5454634;26;20606;-75
2024/04/26 12:53:51;;;;;;;;;;;;;;;13.83;43.36;96999.19;5479936;26;19928;-77
2024/04/26 12:56:43;;;;;;;;;;;;;;;13.85;43.90;97008.63;5452749;26;19939;-75
2024/04/26 12:59:35;;;;;;;;;;;;;;;14.11;44.60;97008.03;5474215;26;20403;-76
2024/04/26 13:02:25;;;;;;;;;;;;;;;14.26;43.47;97011.06;5480838;26;19952;-75
2024/04/26 13:05:18;;;;;;;;;;;;;;;14.33;43.32;97003.03;5475520;26;20265;-75
2024/04/26 13:08:08;;;;;;;;;;;;;;;14.57;42.89;97000.06;5470262;26;19956;-75
2024/04/26 13:10:58;;;;;;;;;;;;;;;14.65;42.37;96998.28;5473452;26;19928;-75
2024/04/26 13:13:48;;;;;;;;;;;;;;;14.64;43.31;96994.72;5483642;26;19928;-76
2024/04/26 13:16:38;;;;;;;;;;;;;;;14.72;42.85;96994.88;5482951;26;19960;-77
2024/04/26 13:19:29;;;;;;;;;;;;;;;14.67;43.06;96999.47;5468630;26;19940;-74
2024/04/26 13:22:25;;;;;;;;;;;;;;;14.79;43.68;96992.28;5481648;26;19936;-76
2024/04/26 13:25:18;;;;;;;;;;;;;;;14.96;43.62;96991.81;5457959;26;19935;-76
2024/04/26 13:28:08;;;;;;;;;;;;;;;15.00;41.88;96984.50;5460970;26;19935;-74
2024/04/26 13:30:59;;;;;;;;;;;;;;;15.13;42.30;96987.88;5474290;26;19928;-75
2024/04/26 13:33:48;;;;;;;;;;;;;;;15.05;41.17;96989.66;5443951;26;19932;-78
2024/04/26 13:36:41;;;;;;;;;;;;;;;15.07;41.96;96986.56;5485803;26;19952;-81
2024/04/26 13:39:34;;;;;;;;;;;;;;;15.17;42.34;96988.69;5468890;26;20007;-72
2024/04/26 13:42:25;;;;;;;;;;;;;;;15.26;41.07;96983.00;5466277;26;19928;-71
2024/04/26 13:45:17;;;;;;;;;;;;;;;15.09;41.54;96982.31;5481784;26;20000;-74
2024/04/26 13:48:07;;;;;;;;;;;;;;;15.22;42.33;96979.41;5466793;26;19928;-74
2024/04/26 13:50:59;;;;;;;;;;;;;;;15.23;42.90;96976.28;5457212;26;19928;-75
2024/04/26 13:53:50;;;;;;;;;;;;;;;15.12;41.89;96980.78;5450014;26;19932;-83
2024/04/26 13:56:45;;;;;;;;;;;;;;;15.28;41.35;96967.78;5481925;26;19928;-74
2024/04/26 13:59:35;;;;;;;;;;;;;;;15.29;40.34;96979.53;5465142;26;19928;-80
2024/04/26 14:02:26;;;;;;;;;;;;;;;15.17;39.68;96975.00;5464948;26;19948;-73
2024/04/26 14:05:16;;;;;;;;;;;;;;;15.18;39.83;96976.63;5483917;26;19936;-71
2024/04/26 14:08:10;;;;;;;;;;;;;;;15.20;40.02;96977.03;5455921;26;19935;-68
2024/04/26 14:11:00;;;;;;;;;;;;;;;15.27;38.92;96976.38;5480513;26;19946;-69
2024/04/26 14:13:52;;;;;;;;;;;;;;;15.07;39.15;96978.34;5482137;26;19934;-68
2024/04/26 14:16:42;;;;;;;;;;;;;;;15.02;38.69;96974.00;5465219;26;19935;-76
2024/04/26 14:19:35;;;;;;;;;;;;;;;14.74;39.14;96970.69;5476419;26;20582;-70
2024/04/26 14:22:25;;;;;;;;;;;;;;;14.68;39.67;96973.72;5485069;26;19996;-70
2024/04/26 14:25:15;;;;;;;;;;;;;;;14.63;40.77;96971.28;5476984;26;20003;-70
2024/04/26 14:28:06;;;;;;;;;;;;;;;14.59;40.65;96975.09;5469186;26;20275;-71
2024/04/26 14:30:59;;;;;;;;;;;;;;;14.64;40.56;96978.31;5449963;26;19943;-71
2024/04/26 14:33:50;;;;;;;;;;;;;;;14.51;40.95;96979.63;5462781;26;19936;-70
2024/04/26 14:36:42;;;;;;;;;;;;;;;14.33;41.51;96973.78;5489084;26;19936;-87
2024/04/26 14:39:38;;;;;;;;;;;;;;;14.37;42.16;96973.84;5493934;26;19928;-84
2024/04/26 14:42:30;;;;;;;;;;;;;;;14.44;41.57;96979.47;5485473;26;19928;-83
2024/04/26 14:45:22;;;;;;;;;;;;;;;14.29;41.59;96975.63;5487270;26;19940;-82
2024/04/26 14:48:15;;;;;;;;;;;;;;;14.36;41.85;96972.25;5485298;26;20012;-82
2024/04/26 14:51:06;;;;;;;;;;;;;;;14.30;41.18;96971.75;5462364;26;19943;-85
2024/04/26 14:53:56;;;;;;;;;;;;;;;14.32;40.84;96960.44;5480607;26;19936;-81
2024/04/26 14:56:46;;;;;;;;;;;;;;;14.18;41.16;96976.56;5487287;26;20327;-84
2024/04/26 14:59:36;;;;;;;;;;;;;;;14.21;41.15;96964.91;5463328;26;19936;-86